sensor_id;sensor_type;location;lat;lon;timestamp;P1;durP1;ratioP1;P2;durP2;ratioP2
32469;SDS011;18925;48.356;10.864;2022-10-16T00:00:13;10.45;;;5.03;;
32469;SDS011;18925;48.356;10.864;2022-10-16T00:00:44;8.55;;;4.75;;
32469;SDS011;18925;48.356;10.864;2022-10-16T00:01:15;9.57;;;4.82;;
32469;SDS011;18925;48.356;10.864;2022-10-16T00:01:47;16.23;;;4.95;;
32469;SDS011;18925;48.356;10.864;2022-10-16T00:02:18;10.18;;;5.30;;
32469;SDS011;18925;48.356;10.864;2022-10-16T00:02:48;9.48;;;5.07;;
32469;SDS011;18925;48.356;10.864;2022-10-16T00:03:19;9.68;;;5.30;;
32469;SDS011;18925;48.356;10.864;2022-10-16T00:03:49;6.50;;;4.90;;
32469;SDS011;18925;48.356;10.864;2022-10-16T00:04:21;9.25;;;4.97;;
32469;SDS011;18925;48.356;10.864;2022-10-16T00:04:51;9.00;;;5.32;;
32469;SDS011;18925;48.356;10.864;2022-10-16T00:05:22;10.95;;;5.35;;
32469;SDS011;18925;48.356;10.864;2022-10-16T00:05:53;12.48;;;5.35;;
32469;SDS011;18925;48.356;10.864;2022-10-16T00:06:24;8.50;;;4.88;;
32469;SDS011;18925;48.356;10.864;2022-10-16T00:06:55;14.73;;;5.40;;
32469;SDS011;18925;48.356;10.864;2022-10-16T00:07:26;10.25;;;5.70;;
32469;SDS011;18925;48.356;10.864;2022-10-16T00:07:57;8.65;;;4.53;;
32469;SDS011;18925;48.356;10.864;2022-10-16T00:08:28;10.95;;;4.97;;
32469;SDS011;18925;48.356;10.864;2022-10-16T00:08:59;11.73;;;5.57;;
32469;SDS011;18925;48.356;10.864;2022-10-16T00:09:30;10.25;;;5.45;;
32469;SDS011;18925;48.356;10.864;2022-10-16T00:10:00;12.68;;;5.85;;
32469;SDS011;18925;48.356;10.864;2022-10-16T00:10:31;9.85;;;5.53;;
32469;SDS011;18925;48.356;10.864;2022-10-16T00:11:03;9.70;;;4.70;;
32469;SDS011;18925;48.356;10.864;2022-10-16T00:11:36;12.10;;;5.30;;
32469;SDS011;18925;48.356;10.864;2022-10-16T00:12:09;11.80;;;5.25;;
32469;SDS011;18925;48.356;10.864;2022-10-16T00:12:39;8.57;;;5.38;;
32469;SDS011;18925;48.356;10.864;2022-10-16T00:13:10;13.50;;;5.50;;
32469;SDS011;18925;48.356;10.864;2022-10-16T00:13:41;14.77;;;5.03;;
32469;SDS011;18925;48.356;10.864;2022-10-16T00:14:13;9.27;;;5.28;;
32469;SDS011;18925;48.356;10.864;2022-10-16T00:14:45;10.35;;;5.40;;
32469;SDS011;18925;48.356;10.864;2022-10-16T00:15:16;10.82;;;4.75;;
32469;SDS011;18925;48.356;10.864;2022-10-16T00:15:46;8.55;;;4.93;;
32469;SDS011;18925;48.356;10.864;2022-10-16T00:16:17;12.45;;;4.95;;
32469;SDS011;18925;48.356;10.864;2022-10-16T00:16:49;6.78;;;4.50;;
32469;SDS011;18925;48.356;10.864;2022-10-16T00:17:19;10.23;;;5.10;;
32469;SDS011;18925;48.356;10.864;2022-10-16T00:17:50;8.80;;;4.75;;
32469;SDS011;18925;48.356;10.864;2022-10-16T00:18:20;8.13;;;5.00;;
32469;SDS011;18925;48.356;10.864;2022-10-16T00:18:51;8.32;;;4.57;;
32469;SDS011;18925;48.356;10.864;2022-10-16T00:19:22;6.57;;;4.85;;
32469;SDS011;18925;48.356;10.864;2022-10-16T00:19:53;10.48;;;4.93;;
32469;SDS011;18925;48.356;10.864;2022-10-16T00:20:23;13.10;;;5.03;;
32469;SDS011;18925;48.356;10.864;2022-10-16T00:20:54;11.70;;;5.18;;
32469;SDS011;18925;48.356;10.864;2022-10-16T00:21:27;10.57;;;4.50;;
32469;SDS011;18925;48.356;10.864;2022-10-16T00:21:59;8.23;;;4.93;;
32469;SDS011;18925;48.356;10.864;2022-10-16T00:22:29;10.50;;;4.78;;
32469;SDS011;18925;48.356;10.864;2022-10-16T00:23:00;6.40;;;4.35;;
32469;SDS011;18925;48.356;10.864;2022-10-16T00:23:31;8.45;;;4.53;;
32469;SDS011;18925;48.356;10.864;2022-10-16T00:24:04;11.95;;;4.75;;
32469;SDS011;18925;48.356;10.864;2022-10-16T00:24:38;13.55;;;4.88;;
32469;SDS011;18925;48.356;10.864;2022-10-16T00:25:08;10.60;;;4.45;;
32469;SDS011;18925;48.356;10.864;2022-10-16T00:25:39;20.83;;;4.95;;
32469;SDS011;18925;48.356;10.864;2022-10-16T00:26:11;9.38;;;4.78;;
32469;SDS011;18925;48.356;10.864;2022-10-16T00:26:44;9.18;;;4.70;;
32469;SDS011;18925;48.356;10.864;2022-10-16T00:27:14;7.70;;;4.70;;
32469;SDS011;18925;48.356;10.864;2022-10-16T00:27:45;7.70;;;4.95;;
32469;SDS011;18925;48.356;10.864;2022-10-16T00:28:16;8.88;;;5.13;;
32469;SDS011;18925;48.356;10.864;2022-10-16T00:28:47;8.82;;;4.70;;
32469;SDS011;18925;48.356;10.864;2022-10-16T00:29:19;10.00;;;4.65;;
32469;SDS011;18925;48.356;10.864;2022-10-16T00:29:50;8.25;;;4.32;;
32469;SDS011;18925;48.356;10.864;2022-10-16T00:30:21;8.75;;;4.30;;
32469;SDS011;18925;48.356;10.864;2022-10-16T00:30:52;11.63;;;4.93;;
32469;SDS011;18925;48.356;10.864;2022-10-16T00:31:23;9.10;;;4.40;;
32469;SDS011;18925;48.356;10.864;2022-10-16T00:31:54;13.35;;;4.28;;
32469;SDS011;18925;48.356;10.864;2022-10-16T00:32:25;8.88;;;4.40;;
32469;SDS011;18925;48.356;10.864;2022-10-16T00:32:56;8.80;;;4.40;;
32469;SDS011;18925;48.356;10.864;2022-10-16T00:33:26;12.65;;;4.45;;
32469;SDS011;18925;48.356;10.864;2022-10-16T00:33:57;6.55;;;4.22;;
32469;SDS011;18925;48.356;10.864;2022-10-16T00:34:28;11.90;;;4.97;;
32469;SDS011;18925;48.356;10.864;2022-10-16T00:34:58;8.88;;;4.05;;
32469;SDS011;18925;48.356;10.864;2022-10-16T00:35:30;7.82;;;4.15;;
32469;SDS011;18925;48.356;10.864;2022-10-16T00:36:01;7.15;;;4.20;;
32469;SDS011;18925;48.356;10.864;2022-10-16T00:36:33;7.13;;;4.45;;
32469;SDS011;18925;48.356;10.864;2022-10-16T00:37:04;7.65;;;3.85;;
32469;SDS011;18925;48.356;10.864;2022-10-16T00:37:35;7.80;;;4.25;;
32469;SDS011;18925;48.356;10.864;2022-10-16T00:38:05;8.68;;;4.00;;
32469;SDS011;18925;48.356;10.864;2022-10-16T00:38:36;6.00;;;3.70;;
32469;SDS011;18925;48.356;10.864;2022-10-16T00:39:07;5.82;;;3.92;;
32469;SDS011;18925;48.356;10.864;2022-10-16T00:39:38;6.80;;;3.88;;
32469;SDS011;18925;48.356;10.864;2022-10-16T00:40:09;11.35;;;3.92;;
32469;SDS011;18925;48.356;10.864;2022-10-16T00:40:40;10.50;;;3.75;;
32469;SDS011;18925;48.356;10.864;2022-10-16T00:41:12;11.05;;;4.10;;
32469;SDS011;18925;48.356;10.864;2022-10-16T00:41:45;7.68;;;3.90;;
32469;SDS011;18925;48.356;10.864;2022-10-16T00:42:16;7.38;;;4.30;;
32469;SDS011;18925;48.356;10.864;2022-10-16T00:42:48;4.75;;;3.42;;
32469;SDS011;18925;48.356;10.864;2022-10-16T00:43:35;7.75;;;3.67;;
32469;SDS011;18925;48.356;10.864;2022-10-16T00:45:13;5.78;;;3.78;;
32469;SDS011;18925;48.356;10.864;2022-10-16T00:45:44;6.28;;;3.85;;
32469;SDS011;18925;48.356;10.864;2022-10-16T00:46:16;9.90;;;4.07;;
32469;SDS011;18925;48.356;10.864;2022-10-16T00:46:47;5.45;;;3.78;;
32469;SDS011;18925;48.356;10.864;2022-10-16T00:47:21;6.55;;;3.67;;
32469;SDS011;18925;48.356;10.864;2022-10-16T00:48:00;8.02;;;4.03;;
32469;SDS011;18925;48.356;10.864;2022-10-16T00:48:31;8.68;;;3.78;;
32469;SDS011;18925;48.356;10.864;2022-10-16T00:49:40;8.85;;;4.30;;
32469;SDS011;18925;48.356;10.864;2022-10-16T00:50:13;10.48;;;4.50;;
32469;SDS011;18925;48.356;10.864;2022-10-16T00:50:50;6.38;;;4.00;;
32469;SDS011;18925;48.356;10.864;2022-10-16T00:51:23;12.55;;;4.55;;
32469;SDS011;18925;48.356;10.864;2022-10-16T00:51:58;5.75;;;3.97;;
32469;SDS011;18925;48.356;10.864;2022-10-16T00:52:29;7.93;;;4.07;;
32469;SDS011;18925;48.356;10.864;2022-10-16T00:53:00;6.68;;;3.70;;
32469;SDS011;18925;48.356;10.864;2022-10-16T00:53:32;8.57;;;4.00;;
32469;SDS011;18925;48.356;10.864;2022-10-16T00:54:04;7.78;;;3.80;;
32469;SDS011;18925;48.356;10.864;2022-10-16T00:54:39;7.07;;;3.63;;
32469;SDS011;18925;48.356;10.864;2022-10-16T00:55:10;5.53;;;4.10;;
32469;SDS011;18925;48.356;10.864;2022-10-16T00:55:40;4.85;;;3.50;;
32469;SDS011;18925;48.356;10.864;2022-10-16T00:56:11;6.40;;;4.10;;
32469;SDS011;18925;48.356;10.864;2022-10-16T00:56:42;7.97;;;3.92;;
32469;SDS011;18925;48.356;10.864;2022-10-16T00:57:14;6.53;;;4.03;;
32469;SDS011;18925;48.356;10.864;2022-10-16T00:57:45;8.25;;;4.13;;
32469;SDS011;18925;48.356;10.864;2022-10-16T00:58:17;5.75;;;3.95;;
32469;SDS011;18925;48.356;10.864;2022-10-16T00:58:48;12.07;;;4.00;;
32469;SDS011;18925;48.356;10.864;2022-10-16T00:59:56;8.70;;;3.80;;
32469;SDS011;18925;48.356;10.864;2022-10-16T01:00:27;5.20;;;3.80;;
32469;SDS011;18925;48.356;10.864;2022-10-16T01:00:58;8.63;;;4.40;;
32469;SDS011;18925;48.356;10.864;2022-10-16T01:01:29;5.72;;;4.03;;
32469;SDS011;18925;48.356;10.864;2022-10-16T01:01:59;9.85;;;3.75;;
32469;SDS011;18925;48.356;10.864;2022-10-16T01:02:30;8.43;;;4.25;;
32469;SDS011;18925;48.356;10.864;2022-10-16T01:03:02;7.45;;;3.75;;
32469;SDS011;18925;48.356;10.864;2022-10-16T01:03:34;6.93;;;3.50;;
32469;SDS011;18925;48.356;10.864;2022-10-16T01:04:06;8.40;;;4.40;;
32469;SDS011;18925;48.356;10.864;2022-10-16T01:04:41;7.60;;;3.58;;
32469;SDS011;18925;48.356;10.864;2022-10-16T01:05:17;5.90;;;3.53;;
32469;SDS011;18925;48.356;10.864;2022-10-16T01:05:53;8.10;;;3.75;;
32469;SDS011;18925;48.356;10.864;2022-10-16T01:07:00;7.80;;;3.88;;
32469;SDS011;18925;48.356;10.864;2022-10-16T01:07:50;6.15;;;3.42;;
32469;SDS011;18925;48.356;10.864;2022-10-16T01:08:29;10.25;;;3.75;;
32469;SDS011;18925;48.356;10.864;2022-10-16T01:09:11;7.85;;;3.33;;
32469;SDS011;18925;48.356;10.864;2022-10-16T01:10:07;7.10;;;3.72;;
32469;SDS011;18925;48.356;10.864;2022-10-16T01:10:54;6.95;;;3.90;;
32469;SDS011;18925;48.356;10.864;2022-10-16T01:12:14;7.78;;;3.45;;
32469;SDS011;18925;48.356;10.864;2022-10-16T01:13:13;7.00;;;3.50;;
32469;SDS011;18925;48.356;10.864;2022-10-16T01:13:48;6.30;;;3.65;;
32469;SDS011;18925;48.356;10.864;2022-10-16T01:14:32;8.52;;;3.42;;
32469;SDS011;18925;48.356;10.864;2022-10-16T01:15:58;6.03;;;3.50;;
32469;SDS011;18925;48.356;10.864;2022-10-16T01:16:44;6.95;;;4.13;;
32469;SDS011;18925;48.356;10.864;2022-10-16T01:17:29;7.72;;;3.90;;
32469;SDS011;18925;48.356;10.864;2022-10-16T01:19:09;7.20;;;3.88;;
32469;SDS011;18925;48.356;10.864;2022-10-16T01:19:51;6.30;;;3.65;;
32469;SDS011;18925;48.356;10.864;2022-10-16T01:20:32;8.20;;;3.95;;
32469;SDS011;18925;48.356;10.864;2022-10-16T01:21:14;11.88;;;3.53;;
32469;SDS011;18925;48.356;10.864;2022-10-16T01:21:51;5.15;;;3.47;;
32469;SDS011;18925;48.356;10.864;2022-10-16T01:22:26;6.85;;;3.60;;
32469;SDS011;18925;48.356;10.864;2022-10-16T01:24:56;6.22;;;3.15;;
32469;SDS011;18925;48.356;10.864;2022-10-16T01:27:09;6.40;;;3.20;;
32469;SDS011;18925;48.356;10.864;2022-10-16T01:27:45;4.85;;;3.30;;
32469;SDS011;18925;48.356;10.864;2022-10-16T01:28:17;7.50;;;3.55;;
32469;SDS011;18925;48.356;10.864;2022-10-16T01:29:15;6.32;;;3.90;;
32469;SDS011;18925;48.356;10.864;2022-10-16T01:30:13;5.28;;;3.70;;
32469;SDS011;18925;48.356;10.864;2022-10-16T01:30:51;7.57;;;3.00;;
32469;SDS011;18925;48.356;10.864;2022-10-16T01:31:26;6.78;;;3.20;;
32469;SDS011;18925;48.356;10.864;2022-10-16T01:32:02;7.28;;;3.38;;
32469;SDS011;18925;48.356;10.864;2022-10-16T01:32:41;9.60;;;3.72;;
32469;SDS011;18925;48.356;10.864;2022-10-16T01:33:17;12.27;;;3.90;;
32469;SDS011;18925;48.356;10.864;2022-10-16T01:34:02;6.28;;;3.25;;
32469;SDS011;18925;48.356;10.864;2022-10-16T01:34:42;8.18;;;3.30;;
32469;SDS011;18925;48.356;10.864;2022-10-16T01:35:25;5.50;;;3.20;;
32469;SDS011;18925;48.356;10.864;2022-10-16T01:36:01;12.27;;;3.17;;
32469;SDS011;18925;48.356;10.864;2022-10-16T01:36:37;6.70;;;3.63;;
32469;SDS011;18925;48.356;10.864;2022-10-16T01:37:15;4.43;;;2.95;;
32469;SDS011;18925;48.356;10.864;2022-10-16T01:38:38;5.97;;;3.17;;
32469;SDS011;18925;48.356;10.864;2022-10-16T01:38:49;4.85;;;3.00;;
32469;SDS011;18925;48.356;10.864;2022-10-16T01:39:25;5.88;;;3.45;;
32469;SDS011;18925;48.356;10.864;2022-10-16T01:40:00;5.68;;;3.35;;
32469;SDS011;18925;48.356;10.864;2022-10-16T01:40:36;6.32;;;3.40;;
32469;SDS011;18925;48.356;10.864;2022-10-16T01:41:11;5.22;;;3.17;;
32469;SDS011;18925;48.356;10.864;2022-10-16T01:41:54;6.32;;;3.30;;
32469;SDS011;18925;48.356;10.864;2022-10-16T01:42:34;6.38;;;3.40;;
32469;SDS011;18925;48.356;10.864;2022-10-16T01:43:08;8.25;;;3.55;;
32469;SDS011;18925;48.356;10.864;2022-10-16T01:43:49;9.60;;;3.50;;
32469;SDS011;18925;48.356;10.864;2022-10-16T01:44:29;5.57;;;3.30;;
32469;SDS011;18925;48.356;10.864;2022-10-16T01:45:04;5.63;;;3.30;;
32469;SDS011;18925;48.356;10.864;2022-10-16T01:45:37;7.15;;;3.13;;
32469;SDS011;18925;48.356;10.864;2022-10-16T01:46:10;7.68;;;3.45;;
32469;SDS011;18925;48.356;10.864;2022-10-16T01:46:46;8.65;;;3.55;;
32469;SDS011;18925;48.356;10.864;2022-10-16T01:47:18;10.50;;;3.05;;
32469;SDS011;18925;48.356;10.864;2022-10-16T01:47:53;12.82;;;3.67;;
32469;SDS011;18925;48.356;10.864;2022-10-16T01:48:25;4.80;;;3.30;;
32469;SDS011;18925;48.356;10.864;2022-10-16T01:48:56;7.55;;;2.92;;
32469;SDS011;18925;48.356;10.864;2022-10-16T01:49:30;6.10;;;3.00;;
32469;SDS011;18925;48.356;10.864;2022-10-16T01:50:04;9.23;;;3.08;;
32469;SDS011;18925;48.356;10.864;2022-10-16T01:50:37;6.18;;;3.28;;
32469;SDS011;18925;48.356;10.864;2022-10-16T01:51:11;4.25;;;3.17;;
32469;SDS011;18925;48.356;10.864;2022-10-16T01:51:43;6.68;;;3.30;;
32469;SDS011;18925;48.356;10.864;2022-10-16T01:52:17;3.90;;;2.90;;
32469;SDS011;18925;48.356;10.864;2022-10-16T01:52:52;5.32;;;3.15;;
32469;SDS011;18925;48.356;10.864;2022-10-16T01:53:26;7.20;;;3.40;;
32469;SDS011;18925;48.356;10.864;2022-10-16T01:53:57;5.45;;;3.70;;
32469;SDS011;18925;48.356;10.864;2022-10-16T01:54:31;10.40;;;3.15;;
32469;SDS011;18925;48.356;10.864;2022-10-16T01:55:05;8.88;;;3.35;;
32469;SDS011;18925;48.356;10.864;2022-10-16T01:55:40;5.80;;;3.33;;
32469;SDS011;18925;48.356;10.864;2022-10-16T01:56:15;9.98;;;2.90;;
32469;SDS011;18925;48.356;10.864;2022-10-16T01:56:47;8.68;;;3.47;;
32469;SDS011;18925;48.356;10.864;2022-10-16T01:57:21;6.88;;;3.30;;
32469;SDS011;18925;48.356;10.864;2022-10-16T01:57:55;8.77;;;3.55;;
32469;SDS011;18925;48.356;10.864;2022-10-16T01:58:28;8.30;;;3.67;;
32469;SDS011;18925;48.356;10.864;2022-10-16T01:59:06;6.05;;;3.47;;
32469;SDS011;18925;48.356;10.864;2022-10-16T01:59:42;5.15;;;3.35;;
32469;SDS011;18925;48.356;10.864;2022-10-16T02:00:16;4.95;;;3.33;;
32469;SDS011;18925;48.356;10.864;2022-10-16T02:00:49;8.77;;;3.55;;
32469;SDS011;18925;48.356;10.864;2022-10-16T02:01:23;6.25;;;3.70;;
32469;SDS011;18925;48.356;10.864;2022-10-16T02:01:59;7.10;;;3.20;;
32469;SDS011;18925;48.356;10.864;2022-10-16T02:02:31;5.13;;;3.00;;
32469;SDS011;18925;48.356;10.864;2022-10-16T02:03:02;6.00;;;3.33;;
32469;SDS011;18925;48.356;10.864;2022-10-16T02:03:36;6.70;;;3.70;;
32469;SDS011;18925;48.356;10.864;2022-10-16T02:04:20;4.40;;;2.85;;
32469;SDS011;18925;48.356;10.864;2022-10-16T02:04:56;6.63;;;3.42;;
32469;SDS011;18925;48.356;10.864;2022-10-16T02:05:46;10.60;;;3.20;;
32469;SDS011;18925;48.356;10.864;2022-10-16T02:06:21;5.47;;;3.33;;
32469;SDS011;18925;48.356;10.864;2022-10-16T02:06:53;7.38;;;2.92;;
32469;SDS011;18925;48.356;10.864;2022-10-16T02:07:24;7.32;;;3.03;;
32469;SDS011;18925;48.356;10.864;2022-10-16T02:07:55;3.83;;;3.00;;
32469;SDS011;18925;48.356;10.864;2022-10-16T02:08:26;5.15;;;2.88;;
32469;SDS011;18925;48.356;10.864;2022-10-16T02:08:58;8.85;;;3.50;;
32469;SDS011;18925;48.356;10.864;2022-10-16T02:09:30;4.88;;;3.13;;
32469;SDS011;18925;48.356;10.864;2022-10-16T02:10:02;8.32;;;3.10;;
32469;SDS011;18925;48.356;10.864;2022-10-16T02:10:34;7.68;;;2.88;;
32469;SDS011;18925;48.356;10.864;2022-10-16T02:11:06;6.05;;;2.60;;
32469;SDS011;18925;48.356;10.864;2022-10-16T02:11:37;5.70;;;2.78;;
32469;SDS011;18925;48.356;10.864;2022-10-16T02:12:26;5.13;;;2.83;;
32469;SDS011;18925;48.356;10.864;2022-10-16T02:13:04;9.60;;;2.78;;
32469;SDS011;18925;48.356;10.864;2022-10-16T02:13:37;4.50;;;2.42;;
32469;SDS011;18925;48.356;10.864;2022-10-16T02:14:12;6.55;;;2.70;;
32469;SDS011;18925;48.356;10.864;2022-10-16T02:14:42;9.73;;;2.95;;
32469;SDS011;18925;48.356;10.864;2022-10-16T02:15:13;4.88;;;3.10;;
32469;SDS011;18925;48.356;10.864;2022-10-16T02:15:44;7.60;;;2.92;;
32469;SDS011;18925;48.356;10.864;2022-10-16T02:16:14;5.65;;;2.78;;
32469;SDS011;18925;48.356;10.864;2022-10-16T02:16:46;10.48;;;2.92;;
32469;SDS011;18925;48.356;10.864;2022-10-16T02:17:17;7.55;;;2.70;;
32469;SDS011;18925;48.356;10.864;2022-10-16T02:17:48;6.55;;;2.67;;
32469;SDS011;18925;48.356;10.864;2022-10-16T02:18:19;8.10;;;2.60;;
32469;SDS011;18925;48.356;10.864;2022-10-16T02:18:50;4.13;;;2.53;;
32469;SDS011;18925;48.356;10.864;2022-10-16T02:19:20;8.93;;;2.80;;
32469;SDS011;18925;48.356;10.864;2022-10-16T02:19:52;6.38;;;2.65;;
32469;SDS011;18925;48.356;10.864;2022-10-16T02:20:27;7.97;;;2.83;;
32469;SDS011;18925;48.356;10.864;2022-10-16T02:21:05;5.95;;;2.80;;
32469;SDS011;18925;48.356;10.864;2022-10-16T02:21:54;5.82;;;2.80;;
32469;SDS011;18925;48.356;10.864;2022-10-16T02:23:06;8.35;;;2.63;;
32469;SDS011;18925;48.356;10.864;2022-10-16T02:23:47;4.65;;;2.90;;
32469;SDS011;18925;48.356;10.864;2022-10-16T02:24:32;4.65;;;2.65;;
32469;SDS011;18925;48.356;10.864;2022-10-16T02:25:22;9.15;;;3.00;;
32469;SDS011;18925;48.356;10.864;2022-10-16T02:26:03;4.90;;;2.70;;
32469;SDS011;18925;48.356;10.864;2022-10-16T02:26:45;5.05;;;2.78;;
32469;SDS011;18925;48.356;10.864;2022-10-16T02:28:03;6.55;;;3.00;;
32469;SDS011;18925;48.356;10.864;2022-10-16T02:28:42;8.10;;;3.38;;
32469;SDS011;18925;48.356;10.864;2022-10-16T02:29:20;6.18;;;2.95;;
32469;SDS011;18925;48.356;10.864;2022-10-16T02:29:59;6.00;;;2.55;;
32469;SDS011;18925;48.356;10.864;2022-10-16T02:30:42;5.30;;;2.80;;
32469;SDS011;18925;48.356;10.864;2022-10-16T02:31:18;7.28;;;2.97;;
32469;SDS011;18925;48.356;10.864;2022-10-16T02:32:01;5.07;;;2.85;;
32469;SDS011;18925;48.356;10.864;2022-10-16T02:32:34;6.50;;;2.67;;
32469;SDS011;18925;48.356;10.864;2022-10-16T02:33:09;8.55;;;2.97;;
32469;SDS011;18925;48.356;10.864;2022-10-16T02:33:43;5.90;;;2.80;;
32469;SDS011;18925;48.356;10.864;2022-10-16T02:34:16;5.35;;;3.05;;
32469;SDS011;18925;48.356;10.864;2022-10-16T02:34:49;7.93;;;3.00;;
32469;SDS011;18925;48.356;10.864;2022-10-16T02:35:20;4.57;;;2.80;;
32469;SDS011;18925;48.356;10.864;2022-10-16T02:35:53;7.95;;;3.00;;
32469;SDS011;18925;48.356;10.864;2022-10-16T02:36:25;6.18;;;2.75;;
32469;SDS011;18925;48.356;10.864;2022-10-16T02:36:57;8.75;;;3.30;;
32469;SDS011;18925;48.356;10.864;2022-10-16T02:37:30;5.35;;;3.10;;
32469;SDS011;18925;48.356;10.864;2022-10-16T02:38:02;5.13;;;2.83;;
32469;SDS011;18925;48.356;10.864;2022-10-16T02:38:33;6.05;;;3.10;;
32469;SDS011;18925;48.356;10.864;2022-10-16T02:39:04;5.20;;;2.75;;
32469;SDS011;18925;48.356;10.864;2022-10-16T02:39:36;8.20;;;2.88;;
32469;SDS011;18925;48.356;10.864;2022-10-16T02:40:08;7.47;;;2.80;;
32469;SDS011;18925;48.356;10.864;2022-10-16T02:40:40;4.97;;;3.22;;
32469;SDS011;18925;48.356;10.864;2022-10-16T02:41:11;7.15;;;2.97;;
32469;SDS011;18925;48.356;10.864;2022-10-16T02:41:42;6.28;;;3.10;;
32469;SDS011;18925;48.356;10.864;2022-10-16T02:42:13;5.88;;;2.90;;
32469;SDS011;18925;48.356;10.864;2022-10-16T02:42:44;3.42;;;2.55;;
32469;SDS011;18925;48.356;10.864;2022-10-16T02:43:15;6.82;;;2.97;;
32469;SDS011;18925;48.356;10.864;2022-10-16T02:43:46;7.20;;;2.97;;
32469;SDS011;18925;48.356;10.864;2022-10-16T02:44:17;4.60;;;3.13;;
32469;SDS011;18925;48.356;10.864;2022-10-16T02:44:48;7.25;;;2.80;;
32469;SDS011;18925;48.356;10.864;2022-10-16T02:45:18;5.95;;;2.97;;
32469;SDS011;18925;48.356;10.864;2022-10-16T02:45:49;6.25;;;3.33;;
32469;SDS011;18925;48.356;10.864;2022-10-16T02:46:20;9.25;;;2.95;;
32469;SDS011;18925;48.356;10.864;2022-10-16T02:46:51;6.25;;;3.00;;
32469;SDS011;18925;48.356;10.864;2022-10-16T02:47:22;5.65;;;2.65;;
32469;SDS011;18925;48.356;10.864;2022-10-16T02:47:52;3.67;;;2.60;;
32469;SDS011;18925;48.356;10.864;2022-10-16T02:48:23;4.40;;;3.03;;
32469;SDS011;18925;48.356;10.864;2022-10-16T02:48:54;6.03;;;3.20;;
32469;SDS011;18925;48.356;10.864;2022-10-16T02:49:24;7.03;;;3.13;;
32469;SDS011;18925;48.356;10.864;2022-10-16T02:49:55;5.00;;;2.80;;
32469;SDS011;18925;48.356;10.864;2022-10-16T02:50:26;5.97;;;3.00;;
32469;SDS011;18925;48.356;10.864;2022-10-16T02:50:57;4.22;;;2.72;;
32469;SDS011;18925;48.356;10.864;2022-10-16T02:51:27;7.60;;;2.83;;
32469;SDS011;18925;48.356;10.864;2022-10-16T02:51:58;7.75;;;2.75;;
32469;SDS011;18925;48.356;10.864;2022-10-16T02:52:29;5.07;;;2.85;;
32469;SDS011;18925;48.356;10.864;2022-10-16T02:52:59;5.53;;;2.65;;
32469;SDS011;18925;48.356;10.864;2022-10-16T02:53:30;4.43;;;2.92;;
32469;SDS011;18925;48.356;10.864;2022-10-16T02:54:01;3.65;;;2.63;;
32469;SDS011;18925;48.356;10.864;2022-10-16T02:54:32;8.77;;;2.85;;
32469;SDS011;18925;48.356;10.864;2022-10-16T02:55:03;5.47;;;3.00;;
32469;SDS011;18925;48.356;10.864;2022-10-16T02:55:34;6.00;;;3.05;;
32469;SDS011;18925;48.356;10.864;2022-10-16T02:56:05;5.93;;;3.10;;
32469;SDS011;18925;48.356;10.864;2022-10-16T02:56:35;5.65;;;2.67;;
32469;SDS011;18925;48.356;10.864;2022-10-16T02:57:06;8.23;;;3.55;;
32469;SDS011;18925;48.356;10.864;2022-10-16T02:57:37;9.27;;;3.10;;
32469;SDS011;18925;48.356;10.864;2022-10-16T02:58:10;5.43;;;2.92;;
32469;SDS011;18925;48.356;10.864;2022-10-16T02:58:40;5.30;;;2.95;;
32469;SDS011;18925;48.356;10.864;2022-10-16T02:59:11;9.15;;;2.58;;
32469;SDS011;18925;48.356;10.864;2022-10-16T02:59:42;11.65;;;2.78;;
32469;SDS011;18925;48.356;10.864;2022-10-16T03:00:13;3.88;;;2.72;;
32469;SDS011;18925;48.356;10.864;2022-10-16T03:00:45;9.00;;;2.70;;
32469;SDS011;18925;48.356;10.864;2022-10-16T03:01:16;5.97;;;2.55;;
32469;SDS011;18925;48.356;10.864;2022-10-16T03:01:47;7.60;;;3.10;;
32469;SDS011;18925;48.356;10.864;2022-10-16T03:02:17;5.95;;;2.88;;
32469;SDS011;18925;48.356;10.864;2022-10-16T03:02:48;6.15;;;2.67;;
32469;SDS011;18925;48.356;10.864;2022-10-16T03:03:19;7.50;;;2.92;;
32469;SDS011;18925;48.356;10.864;2022-10-16T03:03:49;6.57;;;2.90;;
32469;SDS011;18925;48.356;10.864;2022-10-16T03:04:20;4.65;;;2.92;;
32469;SDS011;18925;48.356;10.864;2022-10-16T03:04:51;11.60;;;3.25;;
32469;SDS011;18925;48.356;10.864;2022-10-16T03:05:22;5.70;;;2.75;;
32469;SDS011;18925;48.356;10.864;2022-10-16T03:05:52;9.48;;;3.00;;
32469;SDS011;18925;48.356;10.864;2022-10-16T03:06:23;4.15;;;2.95;;
32469;SDS011;18925;48.356;10.864;2022-10-16T03:06:53;9.63;;;3.13;;
32469;SDS011;18925;48.356;10.864;2022-10-16T03:07:24;5.80;;;2.90;;
32469;SDS011;18925;48.356;10.864;2022-10-16T03:07:55;6.07;;;3.03;;
32469;SDS011;18925;48.356;10.864;2022-10-16T03:08:25;3.85;;;2.53;;
32469;SDS011;18925;48.356;10.864;2022-10-16T03:08:56;7.68;;;2.65;;
32469;SDS011;18925;48.356;10.864;2022-10-16T03:09:27;4.03;;;2.40;;
32469;SDS011;18925;48.356;10.864;2022-10-16T03:09:57;6.93;;;2.80;;
32469;SDS011;18925;48.356;10.864;2022-10-16T03:10:32;6.18;;;2.78;;
32469;SDS011;18925;48.356;10.864;2022-10-16T03:11:03;5.88;;;3.05;;
32469;SDS011;18925;48.356;10.864;2022-10-16T03:11:33;7.03;;;2.67;;
32469;SDS011;18925;48.356;10.864;2022-10-16T03:12:04;7.28;;;2.90;;
32469;SDS011;18925;48.356;10.864;2022-10-16T03:12:35;8.20;;;3.03;;
32469;SDS011;18925;48.356;10.864;2022-10-16T03:13:05;10.63;;;3.00;;
32469;SDS011;18925;48.356;10.864;2022-10-16T03:13:36;4.40;;;2.83;;
32469;SDS011;18925;48.356;10.864;2022-10-16T03:14:07;4.30;;;2.70;;
32469;SDS011;18925;48.356;10.864;2022-10-16T03:14:37;4.75;;;2.70;;
32469;SDS011;18925;48.356;10.864;2022-10-16T03:15:09;6.30;;;3.10;;
32469;SDS011;18925;48.356;10.864;2022-10-16T03:15:40;6.05;;;3.35;;
32469;SDS011;18925;48.356;10.864;2022-10-16T03:16:11;6.53;;;2.90;;
32469;SDS011;18925;48.356;10.864;2022-10-16T03:16:41;12.38;;;3.20;;
32469;SDS011;18925;48.356;10.864;2022-10-16T03:17:12;4.95;;;3.15;;
32469;SDS011;18925;48.356;10.864;2022-10-16T03:17:43;5.00;;;2.88;;
32469;SDS011;18925;48.356;10.864;2022-10-16T03:18:14;8.55;;;3.05;;
32469;SDS011;18925;48.356;10.864;2022-10-16T03:18:47;3.58;;;3.00;;
32469;SDS011;18925;48.356;10.864;2022-10-16T03:19:19;7.30;;;3.22;;
32469;SDS011;18925;48.356;10.864;2022-10-16T03:19:50;13.40;;;3.25;;
32469;SDS011;18925;48.356;10.864;2022-10-16T03:20:21;4.05;;;3.05;;
32469;SDS011;18925;48.356;10.864;2022-10-16T03:20:52;7.45;;;2.72;;
32469;SDS011;18925;48.356;10.864;2022-10-16T03:21:22;10.52;;;3.10;;
32469;SDS011;18925;48.356;10.864;2022-10-16T03:21:53;4.25;;;2.83;;
32469;SDS011;18925;48.356;10.864;2022-10-16T03:22:24;6.07;;;2.70;;
32469;SDS011;18925;48.356;10.864;2022-10-16T03:22:54;4.53;;;2.97;;
32469;SDS011;18925;48.356;10.864;2022-10-16T03:23:25;6.05;;;3.10;;
32469;SDS011;18925;48.356;10.864;2022-10-16T03:23:56;9.00;;;2.80;;
32469;SDS011;18925;48.356;10.864;2022-10-16T03:24:26;5.50;;;2.55;;
32469;SDS011;18925;48.356;10.864;2022-10-16T03:24:57;4.65;;;2.47;;
32469;SDS011;18925;48.356;10.864;2022-10-16T03:25:28;4.88;;;2.83;;
32469;SDS011;18925;48.356;10.864;2022-10-16T03:25:58;8.20;;;3.00;;
32469;SDS011;18925;48.356;10.864;2022-10-16T03:26:29;4.65;;;2.70;;
32469;SDS011;18925;48.356;10.864;2022-10-16T03:27:00;6.00;;;3.15;;
32469;SDS011;18925;48.356;10.864;2022-10-16T03:27:30;3.97;;;2.83;;
32469;SDS011;18925;48.356;10.864;2022-10-16T03:28:01;9.75;;;2.90;;
32469;SDS011;18925;48.356;10.864;2022-10-16T03:28:32;3.90;;;2.50;;